Aérodrome :
LOGIN :

S'inscrire | Disclaimer

   EN    FR    IT 

 










Légende :    VFR   VFR Marginal   IFR   IFR Intensif   IFR Très Intensif
Visi : 
Plafond : 
>= 8 km
>= 3000ft
5 à 8 km
1000 à 3000 ft
1500m à 5 km
500 à 1000 ft
800 à 1500m
200 à 500 ft
< 800m
< 200 ft
Symboles :   Orages  Brouillard  Fortes neiges  Fortes précipitations  Vent > 20 kt
SIGMETs :   Divers  Orages  Givrage  Turbulence  Onde Orograph.  Cendres Volcan.






- Altitude de l'aérodrome : 1213 ft
- Code IATA : SCQ


LEST - Santiago de Compostela

DERNIER METAR :
  • 270030Z 25009G19KT 200V320 6000 SCT002 BKN003 10/10 Q1021 TEMPO 0800 BCFG

METARs EXPIRÉS :
  • 270000Z 24008G18KT 190V290 4000 BCFG BKN002 OVC007 10/09 Q1022 TEMPO 0800
  • 262330Z 25007KT 200V330 4000 BCFG VV001 09/09 Q1022 TEMPO 0800
  • 262300Z 25009KT 190V300 2000 -DZ VV001 09/09 Q1022 TEMPO 0800 BCFG
  • 262230Z 23009KT 170V280 4000 -DZ SCT001 BKN002 OVC005 09/09 Q1022 TEMPO 1500
  • 262200Z 25009G19KT 190V300 4000 -DZ SCT001 BKN002 OVC006 09/09 Q1023 TEMPO 1500
  • 262130Z 24008KT 190V290 4000 -RADZ BR SCT001 BKN002 09/09 Q1023 TEMPO 1500

TAF TAF LEST
Valide du 27 à 00h jusqu'au 28 à 00h UTC


262300Z 2700/2724 22009KT 7000 SCT010 BKN018 TX15/2714Z TN08/2800Z
TEMPO 2700/2718 22015G25KT
TEMPO 2700/2712 3000 -RADZ BR BKN010 BKN014
TEMPO 2700/2712 1500 -RADZ BCFG BKN002 BKN005
PROB40
TEMPO 2700/2712 0600 -RADZ BCFG VV001



MET'MAP, la Météo Aéronautique d'un coup d'oeil ! - Copyright ORBIFLY Décembre 2007 - Disclaimer

ORBIFLY MET'MAP TEAM :

Programmation & Développement : Alexandra Zaïnal
Sur une idée originale de : Baudouin d'Aumeries
Assistance à la programmation : Marc-Olivier Méhu
Soutien technique & logistique : Manuel Goepfert

Contact : metmap@orbifly.com




SOURCES & CREDITS :

   NOAA